Jump to content


UNITED AIRLINES FLIGHT UA970 FLOWN ON 10-06-2017 BY CAPTAIN JIM BOERMAN

Pilot StatsCaptain Jim Boerman (LDP136) • 4,616.9 total hours • 1,400 total flights [View Logbook]
FLIGHT DETAILS
StatusReceived and approved on 2017-10-06 at 20:10:30
Origin AirportChicago-OHare Intl (KORD) • Chicago, Illinois, United States (668 feet MSL)
Filed Flight PlanKORD KUBBS J547 FNT Q824 HOCKE Q905 SIKBO Q907 MIILS N324A ELSIR NATW XETBO RATKA UN512 BERAD UN490 TERPO UM616 NTS UP860 BEBIX UM616 LERGA UT183 OTROT UQ215 BTA UM728 KISTO UQ160 MEDAL UM729 RAVAL LIRF
Destination AirportFiumicino (LIRF) • Rome, Italy (14 feet MSL)
Alternate AirportGrazzanise Mil (LIRM) • Grazzanise, Italy (29 feet MSL)
AirlineUnited Airlines
AircraftBoeing 777-200LR (77L / B777-200LR)
FS Aircraft UsedPMDG 777-222LR United Airlines (Merger - Fictional)
Cruising AltitudeFL350
Distance Flown4,180 nautical miles
Passengers Onboard127 passengers (42.19% full)
DEPARTURE DETAILS
Time Out09:47:56
Taxi Data508,764 lbs total with 128,240 lbs of fuel onboard
Takeoff Data10:03:02 (15 minutes after leaving gate/ramp) • 506,931 lbs total • 9° pitch at 169 knots
Departure METARKORD 061359Z 09007KT 2 1/2SM -DZ BR OVC004 16/15 A3003 RMK AO2 P0000 T01610150
ARRIVAL DETAILS
Landing Data00:40:22 • 396,148 lbs total • 6° pitch doing 120 knots at a rate of -152.25 feet/minute with 14,990 lbs of fuel onboard
Time In00:49:03 (9 minutes after landing)
Ramp Weight395,514 lbs total
Total Fuel Used113,250 lbs
Total Block Time07:10:04 (7.2 hours) while 24 minutes were spent on the ground
Arrival METARLIRF 062350Z 01010KT 9999 SCT040 15/07 Q1010 NOSIG
MISCELLANEOUS DETAILS
LiveDISPATCH Version4.8.3.1
FS Version
FSUIPC Version5.12
OS VersionWindows 7 32-bit
Screen Resolution1920 x 1080
Pilot's CommentsNo Comments Reported
FLIGHT MAP